createdAt,value
2022-11-18T00:00:23.593Z,100037.31
2022-11-18T00:03:27.877Z,100028.88
2022-11-18T00:06:30.823Z,100035.47
2022-11-18T00:09:32.912Z,100025.50
2022-11-18T00:12:53.607Z,100049.09
2022-11-18T00:16:06.405Z,100053.81
2022-11-18T00:19:08.583Z,100041.81
2022-11-18T00:22:13.357Z,100032.75
2022-11-18T00:25:15.493Z,100038.09
2022-11-18T00:28:17.557Z,100028.66
2022-11-18T00:31:20.812Z,100006.63
2022-11-18T00:34:24.035Z,100014.56
2022-11-18T00:37:26.097Z,100007.28
2022-11-18T00:40:28.257Z,100006.94
2022-11-18T00:43:31.020Z,100000.09
2022-11-18T00:46:33.185Z,99988.41
2022-11-18T00:49:35.190Z,99995.47
2022-11-18T00:52:37.353Z,99983.47
2022-11-18T00:55:39.403Z,99984.75
2022-11-18T00:58:41.461Z,99971.13
2022-11-18T01:01:43.631Z,99992.91
2022-11-18T01:04:45.713Z,99974.66
2022-11-18T01:07:48.011Z,99977.78
2022-11-18T01:10:50.971Z,99948.00
2022-11-18T01:13:54.469Z,99977.41
2022-11-18T01:16:57.163Z,99976.50
2022-11-18T01:20:00.098Z,99970.09
2022-11-18T01:23:02.382Z,99971.63
2022-11-18T01:26:07.035Z,99989.09
2022-11-18T01:29:09.449Z,100000.47
2022-11-18T01:32:25.806Z,99998.31
2022-11-18T01:35:28.094Z,99938.19
2022-11-18T01:38:31.023Z,100000.13
2022-11-18T01:41:33.399Z,99992.91
2022-11-18T01:44:58.259Z,100005.94
2022-11-18T01:48:09.846Z,100000.09
2022-11-18T01:51:19.571Z,99993.22
2022-11-18T01:54:31.458Z,100005.59
2022-11-18T01:57:34.110Z,100017.25
2022-11-18T02:00:37.010Z,100011.69
2022-11-18T02:03:39.104Z,100009.91
2022-11-18T02:06:42.894Z,100012.31
2022-11-18T02:09:46.362Z,99987.38
2022-11-18T02:12:50.859Z,100010.28
2022-11-18T02:16:03.153Z,99999.63
2022-11-18T02:19:15.379Z,100006.38
2022-11-18T02:22:23.523Z,100000.78
2022-11-18T02:25:34.479Z,100011.31
2022-11-18T02:28:59.155Z,99964.53
2022-11-18T02:32:38.822Z,99987.22
2022-11-18T02:36:02.239Z,99984.75
2022-11-18T02:39:16.785Z,99986.75
2022-11-18T02:42:19.956Z,99994.78
2022-11-18T02:45:23.051Z,99994.41
2022-11-18T02:48:29.144Z,99984.13
2022-11-18T02:51:33.175Z,100012.78
2022-11-18T02:54:38.603Z,100023.00
2022-11-18T02:57:44.095Z,100017.34
2022-11-18T03:00:57.340Z,100013.16
2022-11-18T03:03:59.813Z,100013.59
2022-11-18T03:07:30.176Z,100007.22
2022-11-18T03:10:40.602Z,100021.31
2022-11-18T03:14:16.222Z,100025.63
2022-11-18T03:17:26.584Z,100019.06
2022-11-18T03:20:34.082Z,100040.06
2022-11-18T03:23:43.197Z,100032.38
2022-11-18T03:26:51.237Z,100028.88
2022-11-18T03:30:01.698Z,100047.72
2022-11-18T03:33:17.300Z,100068.50
2022-11-18T03:36:23.644Z,100069.28
2022-11-18T03:39:28.711Z,100071.09
2022-11-18T03:42:45.463Z,100074.84
2022-11-18T03:45:51.013Z,100066.81
2022-11-18T03:48:59.209Z,100059.03
2022-11-18T03:52:10.770Z,100047.28
2022-11-18T03:55:18.225Z,100048.78
2022-11-18T03:58:27.039Z,100055.84
2022-11-18T04:01:44.265Z,100052.22
2022-11-18T04:04:49.478Z,100056.72
2022-11-18T04:07:59.179Z,100067.06
2022-11-18T04:11:37.209Z,100056.38
2022-11-18T04:14:42.413Z,100052.47
2022-11-18T04:17:44.595Z,100055.72
2022-11-18T04:20:46.731Z,100063.13
2022-11-18T04:23:48.691Z,100067.13
2022-11-18T04:26:50.708Z,100074.91
2022-11-18T04:29:52.955Z,100065.81
2022-11-18T04:32:55.054Z,100059.22
2022-11-18T04:35:57.222Z,100055.22
2022-11-18T04:38:59.392Z,100026.66
2022-11-18T04:42:01.556Z,100067.63
2022-11-18T04:45:04.102Z,100060.94
2022-11-18T04:48:06.712Z,100055.00
2022-11-18T04:51:10.127Z,100045.47
2022-11-18T04:54:16.247Z,100059.28
2022-11-18T04:57:18.492Z,100043.66
2022-11-18T05:00:22.630Z,100042.66
2022-11-18T05:03:24.747Z,100058.50
2022-11-18T05:06:26.990Z,100040.34
2022-11-18T05:09:31.993Z,100078.91
2022-11-18T05:12:49.988Z,100084.53
2022-11-18T05:15:52.325Z,100080.38
2022-11-18T05:18:55.490Z,100064.38
2022-11-18T05:21:58.435Z,100088.41
2022-11-18T05:25:00.995Z,100111.78
2022-11-18T05:28:03.588Z,100098.44
2022-11-18T05:31:10.260Z,100118.47
2022-11-18T05:34:13.465Z,100109.66
2022-11-18T05:37:15.728Z,100119.38
2022-11-18T05:40:18.011Z,100125.78
2022-11-18T05:43:20.115Z,100108.59
2022-11-18T05:46:22.160Z,100094.94
2022-11-18T05:49:25.316Z,100093.97
2022-11-18T05:52:28.400Z,100103.59
2022-11-18T05:55:38.807Z,100090.38
2022-11-18T05:58:40.854Z,100081.81
2022-11-18T06:02:08.541Z,100082.28
2022-11-18T06:05:12.463Z,100077.22
2022-11-18T06:08:17.368Z,100082.19
2022-11-18T06:11:21.341Z,100071.91
2022-11-18T06:14:31.088Z,100074.94
2022-11-18T06:17:46.068Z,100081.28
2022-11-18T06:20:48.265Z,100071.09
2022-11-18T06:23:50.704Z,100077.13
2022-11-18T06:26:53.431Z,100071.94
2022-11-18T06:29:56.269Z,100060.22
2022-11-18T06:32:58.511Z,100070.53
2022-11-18T06:36:00.577Z,100089.06
2022-11-18T06:39:06.261Z,100089.66
2022-11-18T06:42:08.284Z,100097.59
2022-11-18T06:45:11.983Z,100105.91
2022-11-18T06:48:14.141Z,100098.91
2022-11-18T06:51:17.237Z,100096.50
2022-11-18T06:54:20.396Z,100092.53
2022-11-18T06:57:25.850Z,100066.56
2022-11-18T07:00:30.356Z,100090.56
2022-11-18T07:03:33.398Z,100075.09
2022-11-18T07:06:36.848Z,100071.69
2022-11-18T07:09:39.216Z,100061.59
2022-11-18T07:12:41.331Z,100063.09
2022-11-18T07:15:43.383Z,100057.66
2022-11-18T07:18:47.154Z,100055.53
2022-11-18T07:21:49.272Z,100038.84
2022-11-18T07:24:51.335Z,100043.59
2022-11-18T07:27:53.530Z,100045.00
2022-11-18T07:31:06.356Z,100043.22
2022-11-18T07:34:08.595Z,100059.78
2022-11-18T07:37:10.776Z,100045.72
2022-11-18T07:40:12.834Z,100073.38
2022-11-18T07:43:14.869Z,100074.31
2022-11-18T07:46:21.561Z,100077.56
2022-11-18T07:49:25.366Z,100069.66
2022-11-18T07:52:27.595Z,100041.38
2022-11-18T07:55:32.270Z,100046.00
2022-11-18T07:58:36.196Z,100062.34
2022-11-18T08:01:38.528Z,100054.78
2022-11-18T08:04:41.011Z,100028.97
2022-11-18T08:07:43.258Z,100046.63
2022-11-18T08:10:45.409Z,100039.03
2022-11-18T08:13:47.541Z,100052.09
2022-11-18T08:16:50.104Z,100042.56
2022-11-18T08:19:52.176Z,100048.72
2022-11-18T08:22:54.259Z,100052.06
2022-11-18T08:26:03.049Z,100061.81
2022-11-18T08:29:05.538Z,100042.13
2022-11-18T08:32:07.740Z,100041.00
2022-11-18T08:35:11.479Z,100072.38
2022-11-18T08:38:13.683Z,100056.78
2022-11-18T08:41:29.782Z,100065.13
2022-11-18T08:44:34.719Z,100087.66
2022-11-18T08:47:37.964Z,100095.44
2022-11-18T08:50:39.964Z,100078.44
2022-11-18T08:53:42.617Z,100068.50
2022-11-18T08:56:44.722Z,100071.66
2022-11-18T08:59:46.979Z,100051.97
2022-11-18T09:02:49.172Z,100080.78
2022-11-18T09:05:51.399Z,100058.47
2022-11-18T09:08:54.290Z,100045.72
2022-11-18T09:11:56.544Z,100050.25
2022-11-18T09:15:15.106Z,100058.16
2022-11-18T09:18:17.832Z,100040.06
2022-11-18T09:21:19.974Z,100027.19
2022-11-18T09:24:22.229Z,100020.13
2022-11-18T09:27:27.467Z,100027.38
2022-11-18T09:30:31.425Z,99991.09
2022-11-18T09:33:33.882Z,100012.25
2022-11-18T09:36:36.197Z,99995.28
2022-11-18T09:39:39.352Z,99986.03
2022-11-18T09:43:10.837Z,100002.34
2022-11-18T09:46:51.512Z,100004.19
2022-11-18T09:50:26.665Z,100000.88
2022-11-18T09:53:47.547Z,99980.88
2022-11-18T09:56:52.102Z,99997.44
2022-11-18T09:59:54.946Z,99992.31
2022-11-18T10:03:10.679Z,99994.72
2022-11-18T10:06:27.807Z,99989.72
2022-11-18T10:09:42.065Z,99956.81
2022-11-18T10:12:57.393Z,99965.81
2022-11-18T10:16:13.906Z,99931.41
2022-11-18T10:19:44.409Z,99967.63
2022-11-18T10:23:22.717Z,99965.66
2022-11-18T10:26:58.317Z,99953.19
2022-11-18T10:30:14.033Z,99962.34
2022-11-18T10:33:25.211Z,99959.47
2022-11-18T10:36:34.974Z,99975.69
2022-11-18T10:39:59.419Z,99962.72
2022-11-18T10:43:01.550Z,99977.00
2022-11-18T10:46:27.931Z,99980.13
2022-11-18T10:49:39.248Z,99962.97
2022-11-18T10:52:53.569Z,99966.53
2022-11-18T10:56:08.079Z,99958.31
2022-11-18T10:59:38.711Z,99984.97
2022-11-18T11:02:41.085Z,99986.66
2022-11-18T11:05:43.177Z,99978.00
2022-11-18T11:09:07.847Z,99982.56
2022-11-18T11:12:19.258Z,99990.91
2022-11-18T11:15:46.382Z,99978.25
2022-11-18T11:18:55.424Z,99977.19
2022-11-18T11:21:57.951Z,99966.28
2022-11-18T11:25:01.106Z,99973.63
2022-11-18T11:28:31.170Z,99985.75
2022-11-18T11:31:46.708Z,99983.47
2022-11-18T11:34:57.541Z,99981.00
2022-11-18T11:38:17.399Z,99969.53
2022-11-18T11:41:23.183Z,99987.06
2022-11-18T11:44:40.085Z,99983.50
2022-11-18T11:47:57.326Z,99978.72
2022-11-18T11:51:06.472Z,99976.84
2022-11-18T11:54:21.315Z,99978.91
2022-11-18T11:57:29.059Z,99979.13
2022-11-18T12:00:40.783Z,99975.59
2022-11-18T12:03:52.377Z,99976.22
2022-11-18T12:06:56.461Z,99985.59
2022-11-18T12:10:20.814Z,99978.09
2022-11-18T12:13:56.095Z,99976.41
2022-11-18T12:17:22.776Z,99985.59
2022-11-18T12:20:47.236Z,99981.66
2022-11-18T12:24:27.453Z,99964.75
2022-11-18T12:27:32.594Z,99960.81
2022-11-18T12:30:36.639Z,99957.28
2022-11-18T12:33:55.789Z,99944.97
2022-11-18T12:36:58.763Z,99941.22
2022-11-18T12:40:01.261Z,99938.31
2022-11-18T12:43:43.477Z,99929.56
2022-11-18T12:46:50.723Z,99923.13
2022-11-18T12:50:14.754Z,99910.63
2022-11-18T12:53:33.351Z,99920.81
2022-11-18T12:56:37.242Z,99908.31
2022-11-18T12:59:39.398Z,99917.91
2022-11-18T13:02:53.755Z,99907.88
2022-11-18T13:06:04.359Z,99916.66
2022-11-18T13:09:19.931Z,99911.00
2022-11-18T13:12:29.355Z,99899.34
2022-11-18T13:16:00.455Z,99878.72
2022-11-18T13:19:02.596Z,99871.63
2022-11-18T13:22:23.103Z,99872.25
2022-11-18T13:25:26.447Z,99858.72
2022-11-18T13:28:33.458Z,99843.16
2022-11-18T13:32:00.644Z,99847.09
2022-11-18T13:35:16.129Z,99864.63
2022-11-18T13:38:28.400Z,99850.72
2022-11-18T13:41:33.952Z,99872.53
2022-11-18T13:44:38.072Z,99875.06
2022-11-18T13:47:55.906Z,99867.38
2022-11-18T13:51:00.747Z,99883.41
2022-11-18T13:54:02.811Z,99877.56
2022-11-18T13:57:05.029Z,99873.41
2022-11-18T14:00:19.777Z,99874.25
2022-11-18T14:03:30.103Z,99881.72
2022-11-18T14:06:34.802Z,99878.84
2022-11-18T14:09:36.899Z,99867.38
2022-11-18T14:12:38.918Z,99872.19
2022-11-18T14:15:44.055Z,99871.56
2022-11-18T14:18:48.790Z,99870.94
2022-11-18T14:21:50.941Z,99863.25
2022-11-18T14:25:01.876Z,99862.00
2022-11-18T14:28:17.836Z,99863.47
2022-11-18T14:31:19.747Z,99885.28
2022-11-18T14:34:26.701Z,99876.97
2022-11-18T14:37:32.259Z,99879.06
2022-11-18T14:40:34.527Z,99882.78
2022-11-18T14:43:36.604Z,99862.19
2022-11-18T14:46:39.287Z,99872.41
2022-11-18T14:49:41.472Z,99864.91
2022-11-18T14:52:43.540Z,99870.75
2022-11-18T14:55:49.600Z,99870.53
2022-11-18T14:58:52.337Z,99870.72
2022-11-18T15:01:56.623Z,99863.22
2022-11-18T15:05:00.632Z,99861.38
2022-11-18T15:08:03.212Z,99859.69
2022-11-18T15:11:05.278Z,99861.16
2022-11-18T15:14:08.743Z,99865.94
2022-11-18T15:17:13.202Z,99854.91
2022-11-18T15:20:18.803Z,99845.72
2022-11-18T15:23:23.495Z,99824.31
2022-11-18T15:26:38.619Z,99814.91
2022-11-18T15:29:40.631Z,99817.41
2022-11-18T15:32:43.146Z,99813.84
2022-11-18T15:35:45.104Z,99800.78
2022-11-18T15:38:47.939Z,99797.03
2022-11-18T15:41:50.111Z,99766.91
2022-11-18T15:44:52.166Z,99799.75
2022-11-18T15:47:54.216Z,99806.81
2022-11-18T15:50:56.678Z,99780.84
2022-11-18T15:53:58.713Z,99778.22
2022-11-18T15:57:00.772Z,99772.19
2022-11-18T16:00:04.700Z,99764.50
2022-11-18T16:03:15.325Z,99740.72
2022-11-18T16:06:17.704Z,99768.31
2022-11-18T16:09:19.878Z,99762.66
2022-11-18T16:12:40.824Z,99773.50
2022-11-18T16:15:48.428Z,99774.59
2022-11-18T16:18:54.599Z,99787.28
2022-11-18T16:21:57.342Z,99788.09
2022-11-18T16:24:59.529Z,99785.41
2022-11-18T16:28:07.437Z,99766.50
2022-11-18T16:31:42.151Z,99797.91
2022-11-18T16:34:44.152Z,99782.69
2022-11-18T16:37:46.174Z,99767.50
2022-11-18T16:40:55.530Z,99797.25
2022-11-18T16:44:00.989Z,99777.47
2022-11-18T16:47:08.983Z,99758.53
2022-11-18T16:50:16.719Z,99740.88
2022-11-18T16:53:19.532Z,99772.44
2022-11-18T16:56:23.821Z,99763.91
2022-11-18T16:59:29.151Z,99748.72
2022-11-18T17:02:31.243Z,99752.00
2022-11-18T17:05:36.043Z,99756.81
2022-11-18T17:08:38.298Z,99743.88
2022-11-18T17:11:40.715Z,99735.22
2022-11-18T17:14:43.048Z,99728.84
2022-11-18T17:17:45.134Z,99730.72
2022-11-18T17:20:47.488Z,99726.59
2022-11-18T17:23:51.351Z,99711.19
2022-11-18T17:26:53.616Z,99697.50
2022-11-18T17:29:56.472Z,99713.91
2022-11-18T17:33:04.335Z,99688.56
2022-11-18T17:39:25.540Z,99678.56
2022-11-18T17:42:28.740Z,99669.22
2022-11-18T17:45:31.872Z,99681.28
2022-11-18T17:48:33.878Z,99679.59
2022-11-18T17:51:37.541Z,99664.25
2022-11-18T17:54:40.006Z,99660.06
2022-11-18T17:57:44.874Z,99666.72
2022-11-18T18:00:47.008Z,99633.28
2022-11-18T18:03:49.307Z,99649.47
2022-11-18T18:07:03.346Z,99649.03
2022-11-18T18:10:08.005Z,99637.22
2022-11-18T18:13:28.756Z,99640.34
2022-11-18T18:16:40.322Z,99643.22
2022-11-18T18:19:44.190Z,99615.78
2022-11-18T18:22:49.424Z,99629.50
2022-11-18T18:25:51.507Z,99643.81
2022-11-18T18:28:53.744Z,99619.28
2022-11-18T18:31:55.892Z,99613.25
2022-11-18T18:34:57.925Z,99618.47
2022-11-18T18:38:30.765Z,99634.03
2022-11-18T18:49:24.727Z,99591.28
2022-11-18T18:52:37.662Z,99608.47
2022-11-18T18:55:45.140Z,99620.75
2022-11-18T18:58:50.213Z,99617.41
2022-11-18T19:01:55.158Z,99605.97
2022-11-18T19:04:57.321Z,99607.00
2022-11-18T19:08:00.717Z,99574.84
2022-11-18T19:11:31.630Z,99590.22
2022-11-18T19:14:40.231Z,99550.94
2022-11-18T19:17:42.709Z,99580.63
2022-11-18T19:20:45.535Z,99567.16
2022-11-18T19:23:49.981Z,99559.84
2022-11-18T19:26:54.414Z,99566.28
2022-11-18T19:29:59.297Z,99553.84
2022-11-18T19:33:01.373Z,99560.88
2022-11-18T19:36:05.172Z,99560.91
2022-11-18T19:39:07.350Z,99561.09
2022-11-18T19:42:11.203Z,99537.81
2022-11-18T19:45:14.960Z,99524.97
2022-11-18T19:48:17.119Z,99528.22
2022-11-18T19:51:19.151Z,99517.25
2022-11-18T19:54:21.255Z,99517.38
2022-11-18T19:57:25.436Z,99482.69
2022-11-18T20:00:27.469Z,99498.69
2022-11-18T20:04:05.802Z,99482.25
2022-11-18T20:07:08.038Z,99467.28
2022-11-18T20:10:10.620Z,99459.22
2022-11-18T20:13:13.599Z,99469.78
2022-11-18T20:16:19.417Z,99473.97
2022-11-18T20:19:21.566Z,99471.88
2022-11-18T20:22:23.861Z,99445.56
2022-11-18T20:25:25.861Z,99445.13
2022-11-18T20:28:27.782Z,99436.78
2022-11-18T20:31:30.289Z,99453.72
2022-11-18T20:34:35.077Z,99442.75
2022-11-18T20:37:37.141Z,99433.88
2022-11-18T20:40:39.089Z,99443.84
2022-11-18T20:43:41.187Z,99435.16
2022-11-18T20:46:43.619Z,99447.78
2022-11-18T20:49:45.779Z,99427.22
2022-11-18T20:52:47.766Z,99425.78
2022-11-18T20:55:50.189Z,99427.63
2022-11-18T20:58:52.532Z,99418.03
2022-11-18T21:01:55.687Z,99418.22
2022-11-18T21:04:58.065Z,99415.69
2022-11-18T21:08:00.425Z,99415.88
2022-11-18T21:11:04.145Z,99404.13
2022-11-18T21:14:24.447Z,99400.81
2022-11-18T21:17:26.916Z,99395.66
2022-11-18T21:20:47.408Z,99395.41
2022-11-18T21:23:49.527Z,99386.69
2022-11-18T21:26:58.014Z,99377.19
2022-11-18T21:30:00.155Z,99394.72
2022-11-18T21:33:02.359Z,99388.59
2022-11-18T21:36:04.936Z,99403.63
2022-11-18T21:39:07.462Z,99379.91
2022-11-18T21:42:09.361Z,99390.50
2022-11-18T21:45:11.675Z,99385.84
2022-11-18T21:48:13.786Z,99395.63
2022-11-18T21:51:18.718Z,99369.50
2022-11-18T21:54:20.877Z,99375.69
2022-11-18T21:57:23.334Z,99372.78
2022-11-18T22:00:25.375Z,99366.19
2022-11-18T22:03:27.412Z,99361.78
2022-11-18T22:06:32.849Z,99346.81
2022-11-18T22:09:36.955Z,99347.84
2022-11-18T22:12:40.603Z,99359.44
2022-11-18T22:15:42.961Z,99355.13
2022-11-18T22:18:50.334Z,99357.56
2022-11-18T22:21:55.309Z,99344.44
2022-11-18T22:24:57.477Z,99335.94
2022-11-18T22:27:59.491Z,99343.84
2022-11-18T22:31:03.983Z,99330.75
2022-11-18T22:34:06.284Z,99324.94
2022-11-18T22:37:08.752Z,99322.69
2022-11-18T22:40:11.311Z,99317.50
2022-11-18T22:43:13.291Z,99305.31
2022-11-18T22:46:15.290Z,99315.66
2022-11-18T22:49:17.720Z,99313.34
2022-11-18T22:52:20.040Z,99322.03
2022-11-18T22:55:22.385Z,99310.56
2022-11-18T22:58:24.367Z,99329.47
2022-11-18T23:01:26.365Z,99331.78
2022-11-18T23:04:28.334Z,99335.75
2022-11-18T23:07:30.354Z,99356.50
2022-11-18T23:10:32.631Z,99352.63
2022-11-18T23:13:56.080Z,99341.91
2022-11-18T23:16:58.006Z,99359.31
2022-11-18T23:20:00.083Z,99357.59
2022-11-18T23:23:02.048Z,99364.41
2022-11-18T23:26:10.164Z,99357.94
2022-11-18T23:29:13.884Z,99343.25
2022-11-18T23:32:15.949Z,99366.03
2022-11-18T23:35:18.058Z,99360.06
2022-11-18T23:38:20.050Z,99361.72
2022-11-18T23:41:23.794Z,99374.59
2022-11-18T23:44:45.253Z,99370.94
2022-11-18T23:47:47.202Z,99383.66
2022-11-18T23:50:56.145Z,99382.31
2022-11-18T23:53:58.140Z,99381.09
2022-11-18T23:57:00.253Z,99398.53
